sensor_id;sensor_type;location;lat;lon;timestamp;P1;durP1;ratioP1;P2;durP2;ratioP2
67757;SDS011;54562;47.620;18.786;2023-08-01T00:01:56;6.80;;;2.60;;
67757;SDS011;54562;47.620;18.786;2023-08-01T00:05:03;7.30;;;2.70;;
67757;SDS011;54562;47.620;18.786;2023-08-01T00:08:10;6.70;;;2.40;;
67757;SDS011;54562;47.620;18.786;2023-08-01T00:11:17;6.30;;;2.80;;
67757;SDS011;54562;47.620;18.786;2023-08-01T00:14:24;6.50;;;2.40;;
67757;SDS011;54562;47.620;18.786;2023-08-01T00:17:31;5.70;;;2.60;;
67757;SDS011;54562;47.620;18.786;2023-08-01T00:20:38;5.80;;;2.50;;
67757;SDS011;54562;47.620;18.786;2023-08-01T00:23:44;5.30;;;2.40;;
67757;SDS011;54562;47.620;18.786;2023-08-01T00:26:50;6.70;;;2.50;;
67757;SDS011;54562;47.620;18.786;2023-08-01T00:29:59;7.80;;;2.80;;
67757;SDS011;54562;47.620;18.786;2023-08-01T00:33:06;6.00;;;2.60;;
67757;SDS011;54562;47.620;18.786;2023-08-01T00:36:12;6.50;;;2.30;;
67757;SDS011;54562;47.620;18.786;2023-08-01T00:39:19;6.00;;;2.40;;
67757;SDS011;54562;47.620;18.786;2023-08-01T00:42:25;8.30;;;2.50;;
67757;SDS011;54562;47.620;18.786;2023-08-01T00:45:32;9.40;;;2.60;;
67757;SDS011;54562;47.620;18.786;2023-08-01T00:48:38;5.50;;;2.40;;
67757;SDS011;54562;47.620;18.786;2023-08-01T00:51:44;4.80;;;2.10;;
67757;SDS011;54562;47.620;18.786;2023-08-01T00:54:51;6.00;;;2.10;;
67757;SDS011;54562;47.620;18.786;2023-08-01T00:57:58;6.20;;;2.30;;
67757;SDS011;54562;47.620;18.786;2023-08-01T01:01:04;8.40;;;2.50;;
67757;SDS011;54562;47.620;18.786;2023-08-01T01:04:11;6.00;;;2.40;;
67757;SDS011;54562;47.620;18.786;2023-08-01T01:07:17;6.20;;;2.40;;
67757;SDS011;54562;47.620;18.786;2023-08-01T01:10:24;6.40;;;2.70;;
67757;SDS011;54562;47.620;18.786;2023-08-01T01:13:31;7.10;;;2.60;;
67757;SDS011;54562;47.620;18.786;2023-08-01T01:16:37;6.50;;;2.50;;
67757;SDS011;54562;47.620;18.786;2023-08-01T01:19:44;6.10;;;2.60;;
67757;SDS011;54562;47.620;18.786;2023-08-01T01:22:50;7.60;;;2.50;;
67757;SDS011;54562;47.620;18.786;2023-08-01T01:25:57;6.80;;;2.90;;
67757;SDS011;54562;47.620;18.786;2023-08-01T01:29:05;5.80;;;2.80;;
67757;SDS011;54562;47.620;18.786;2023-08-01T01:32:13;6.80;;;2.90;;
67757;SDS011;54562;47.620;18.786;2023-08-01T01:35:20;6.60;;;2.90;;
67757;SDS011;54562;47.620;18.786;2023-08-01T01:38:26;6.00;;;2.80;;
67757;SDS011;54562;47.620;18.786;2023-08-01T01:41:32;6.20;;;3.00;;
67757;SDS011;54562;47.620;18.786;2023-08-01T01:44:39;7.40;;;3.20;;
67757;SDS011;54562;47.620;18.786;2023-08-01T01:47:46;7.00;;;3.00;;
67757;SDS011;54562;47.620;18.786;2023-08-01T01:50:53;5.60;;;2.80;;
67757;SDS011;54562;47.620;18.786;2023-08-01T01:53:59;7.90;;;3.30;;
67757;SDS011;54562;47.620;18.786;2023-08-01T01:57:06;6.40;;;3.10;;
67757;SDS011;54562;47.620;18.786;2023-08-01T02:00:13;6.60;;;3.10;;
67757;SDS011;54562;47.620;18.786;2023-08-01T02:03:21;6.30;;;3.20;;
67757;SDS011;54562;47.620;18.786;2023-08-01T02:09:33;6.40;;;3.20;;
67757;SDS011;54562;47.620;18.786;2023-08-01T02:12:39;5.90;;;3.00;;
67757;SDS011;54562;47.620;18.786;2023-08-01T02:15:45;7.90;;;3.20;;
67757;SDS011;54562;47.620;18.786;2023-08-01T02:18:52;6.70;;;3.10;;
67757;SDS011;54562;47.620;18.786;2023-08-01T02:21:59;8.30;;;3.30;;
67757;SDS011;54562;47.620;18.786;2023-08-01T02:25:06;6.00;;;3.20;;
67757;SDS011;54562;47.620;18.786;2023-08-01T02:28:14;6.90;;;3.20;;
67757;SDS011;54562;47.620;18.786;2023-08-01T02:31:21;7.10;;;3.40;;
67757;SDS011;54562;47.620;18.786;2023-08-01T02:34:27;7.50;;;3.30;;
67757;SDS011;54562;47.620;18.786;2023-08-01T02:37:33;8.00;;;3.20;;
67757;SDS011;54562;47.620;18.786;2023-08-01T02:40:40;6.60;;;3.10;;
67757;SDS011;54562;47.620;18.786;2023-08-01T02:43:46;6.90;;;2.80;;
67757;SDS011;54562;47.620;18.786;2023-08-01T02:46:53;7.20;;;3.10;;
67757;SDS011;54562;47.620;18.786;2023-08-01T02:49:59;9.60;;;2.90;;
67757;SDS011;54562;47.620;18.786;2023-08-01T02:53:06;7.60;;;3.00;;
67757;SDS011;54562;47.620;18.786;2023-08-01T02:56:13;8.90;;;3.10;;
67757;SDS011;54562;47.620;18.786;2023-08-01T02:59:20;7.00;;;3.10;;
67757;SDS011;54562;47.620;18.786;2023-08-01T03:02:27;7.40;;;2.90;;
67757;SDS011;54562;47.620;18.786;2023-08-01T03:05:34;7.70;;;3.30;;
67757;SDS011;54562;47.620;18.786;2023-08-01T03:08:41;7.00;;;3.10;;
67757;SDS011;54562;47.620;18.786;2023-08-01T03:11:48;7.10;;;3.20;;
67757;SDS011;54562;47.620;18.786;2023-08-01T03:14:55;6.30;;;2.90;;
67757;SDS011;54562;47.620;18.786;2023-08-01T03:18:01;8.50;;;3.20;;
67757;SDS011;54562;47.620;18.786;2023-08-01T03:21:08;7.30;;;3.30;;
67757;SDS011;54562;47.620;18.786;2023-08-01T03:24:16;6.50;;;3.00;;
67757;SDS011;54562;47.620;18.786;2023-08-01T03:27:23;6.50;;;3.10;;
67757;SDS011;54562;47.620;18.786;2023-08-01T03:30:30;10.60;;;4.40;;
67757;SDS011;54562;47.620;18.786;2023-08-01T03:33:38;8.70;;;4.20;;
67757;SDS011;54562;47.620;18.786;2023-08-01T03:36:45;7.10;;;3.80;;
67757;SDS011;54562;47.620;18.786;2023-08-01T03:39:52;9.50;;;3.90;;
67757;SDS011;54562;47.620;18.786;2023-08-01T03:42:58;7.80;;;3.00;;
67757;SDS011;54562;47.620;18.786;2023-08-01T03:46:04;8.80;;;3.40;;
67757;SDS011;54562;47.620;18.786;2023-08-01T03:49:13;7.90;;;3.30;;
67757;SDS011;54562;47.620;18.786;2023-08-01T03:52:19;8.60;;;3.10;;
67757;SDS011;54562;47.620;18.786;2023-08-01T03:55:26;7.80;;;3.60;;
67757;SDS011;54562;47.620;18.786;2023-08-01T03:58:33;7.40;;;3.40;;
67757;SDS011;54562;47.620;18.786;2023-08-01T04:01:40;8.90;;;3.40;;
67757;SDS011;54562;47.620;18.786;2023-08-01T04:04:47;6.00;;;3.00;;
67757;SDS011;54562;47.620;18.786;2023-08-01T04:07:53;7.30;;;3.30;;
67757;SDS011;54562;47.620;18.786;2023-08-01T04:11:00;7.40;;;3.30;;
67757;SDS011;54562;47.620;18.786;2023-08-01T04:14:07;7.80;;;3.40;;
67757;SDS011;54562;47.620;18.786;2023-08-01T04:17:14;8.20;;;3.60;;
67757;SDS011;54562;47.620;18.786;2023-08-01T04:20:20;9.00;;;3.60;;
67757;SDS011;54562;47.620;18.786;2023-08-01T04:23:27;7.10;;;3.10;;
67757;SDS011;54562;47.620;18.786;2023-08-01T04:26:33;7.10;;;3.10;;
67757;SDS011;54562;47.620;18.786;2023-08-01T04:29:41;7.60;;;3.30;;
67757;SDS011;54562;47.620;18.786;2023-08-01T04:32:48;6.60;;;3.30;;
67757;SDS011;54562;47.620;18.786;2023-08-01T04:35:54;7.20;;;3.50;;
67757;SDS011;54562;47.620;18.786;2023-08-01T04:39:02;7.60;;;3.50;;
67757;SDS011;54562;47.620;18.786;2023-08-01T04:42:12;7.00;;;3.30;;
67757;SDS011;54562;47.620;18.786;2023-08-01T04:45:18;7.10;;;3.30;;
67757;SDS011;54562;47.620;18.786;2023-08-01T04:48:25;8.20;;;3.20;;
67757;SDS011;54562;47.620;18.786;2023-08-01T04:51:31;6.10;;;3.00;;
67757;SDS011;54562;47.620;18.786;2023-08-01T04:54:38;6.40;;;3.20;;
67757;SDS011;54562;47.620;18.786;2023-08-01T04:57:44;7.20;;;3.50;;
67757;SDS011;54562;47.620;18.786;2023-08-01T05:00:51;6.80;;;3.40;;
67757;SDS011;54562;47.620;18.786;2023-08-01T05:03:58;7.30;;;3.30;;
67757;SDS011;54562;47.620;18.786;2023-08-01T05:07:05;8.90;;;3.50;;
67757;SDS011;54562;47.620;18.786;2023-08-01T05:10:12;8.90;;;3.30;;
67757;SDS011;54562;47.620;18.786;2023-08-01T05:13:21;7.50;;;3.50;;
67757;SDS011;54562;47.620;18.786;2023-08-01T05:16:27;6.60;;;3.30;;
67757;SDS011;54562;47.620;18.786;2023-08-01T05:19:34;7.70;;;3.20;;
67757;SDS011;54562;47.620;18.786;2023-08-01T05:22:40;10.10;;;3.60;;
67757;SDS011;54562;47.620;18.786;2023-08-01T05:25:48;7.10;;;3.40;;
67757;SDS011;54562;47.620;18.786;2023-08-01T05:28:55;9.30;;;3.60;;
67757;SDS011;54562;47.620;18.786;2023-08-01T05:32:02;6.20;;;3.50;;
67757;SDS011;54562;47.620;18.786;2023-08-01T05:35:09;6.70;;;3.40;;
67757;SDS011;54562;47.620;18.786;2023-08-01T05:38:15;7.50;;;3.80;;
67757;SDS011;54562;47.620;18.786;2023-08-01T05:41:22;7.10;;;3.50;;
67757;SDS011;54562;47.620;18.786;2023-08-01T05:44:28;7.00;;;3.40;;
67757;SDS011;54562;47.620;18.786;2023-08-01T05:47:35;8.60;;;3.60;;
67757;SDS011;54562;47.620;18.786;2023-08-01T05:50:43;7.80;;;3.40;;
67757;SDS011;54562;47.620;18.786;2023-08-01T05:53:51;7.50;;;3.50;;
67757;SDS011;54562;47.620;18.786;2023-08-01T05:56:57;7.00;;;3.50;;
67757;SDS011;54562;47.620;18.786;2023-08-01T06:00:04;6.60;;;3.50;;
67757;SDS011;54562;47.620;18.786;2023-08-01T06:03:14;7.90;;;3.80;;
67757;SDS011;54562;47.620;18.786;2023-08-01T06:06:21;7.20;;;3.50;;
67757;SDS011;54562;47.620;18.786;2023-08-01T06:09:27;7.80;;;3.70;;
67757;SDS011;54562;47.620;18.786;2023-08-01T06:12:34;8.10;;;4.30;;
67757;SDS011;54562;47.620;18.786;2023-08-01T06:15:40;8.50;;;3.60;;
67757;SDS011;54562;47.620;18.786;2023-08-01T06:18:47;7.00;;;3.30;;
67757;SDS011;54562;47.620;18.786;2023-08-01T06:21:53;7.70;;;3.40;;
67757;SDS011;54562;47.620;18.786;2023-08-01T06:25:01;7.80;;;3.60;;
67757;SDS011;54562;47.620;18.786;2023-08-01T06:28:07;7.70;;;3.20;;
67757;SDS011;54562;47.620;18.786;2023-08-01T06:31:14;5.60;;;3.10;;
67757;SDS011;54562;47.620;18.786;2023-08-01T06:34:20;7.60;;;3.00;;
67757;SDS011;54562;47.620;18.786;2023-08-01T06:37:28;7.10;;;3.00;;
67757;SDS011;54562;47.620;18.786;2023-08-01T06:40:34;7.20;;;3.20;;
67757;SDS011;54562;47.620;18.786;2023-08-01T06:43:40;6.20;;;3.10;;
67757;SDS011;54562;47.620;18.786;2023-08-01T06:46:47;7.00;;;3.30;;
67757;SDS011;54562;47.620;18.786;2023-08-01T06:49:54;7.90;;;3.30;;
67757;SDS011;54562;47.620;18.786;2023-08-01T06:53:00;7.90;;;3.30;;
67757;SDS011;54562;47.620;18.786;2023-08-01T06:56:07;6.60;;;3.40;;
67757;SDS011;54562;47.620;18.786;2023-08-01T06:59:13;5.90;;;2.90;;
67757;SDS011;54562;47.620;18.786;2023-08-01T07:02:20;6.60;;;3.40;;
67757;SDS011;54562;47.620;18.786;2023-08-01T07:05:29;6.90;;;3.50;;
67757;SDS011;54562;47.620;18.786;2023-08-01T07:08:36;7.70;;;3.10;;
67757;SDS011;54562;47.620;18.786;2023-08-01T07:11:42;7.80;;;3.20;;
67757;SDS011;54562;47.620;18.786;2023-08-01T07:14:49;8.50;;;3.40;;
67757;SDS011;54562;47.620;18.786;2023-08-01T07:17:56;9.10;;;3.40;;
67757;SDS011;54562;47.620;18.786;2023-08-01T07:21:02;7.00;;;3.20;;
67757;SDS011;54562;47.620;18.786;2023-08-01T07:24:09;7.60;;;3.40;;
67757;SDS011;54562;47.620;18.786;2023-08-01T07:27:17;8.20;;;3.30;;
67757;SDS011;54562;47.620;18.786;2023-08-01T07:30:23;6.00;;;3.10;;
67757;SDS011;54562;47.620;18.786;2023-08-01T07:33:29;7.70;;;3.20;;
67757;SDS011;54562;47.620;18.786;2023-08-01T07:36:36;7.00;;;3.00;;
67757;SDS011;54562;47.620;18.786;2023-08-01T07:39:44;8.00;;;3.40;;
67757;SDS011;54562;47.620;18.786;2023-08-01T07:42:51;6.40;;;3.00;;
67757;SDS011;54562;47.620;18.786;2023-08-01T07:45:59;7.60;;;2.80;;
67757;SDS011;54562;47.620;18.786;2023-08-01T07:49:05;6.50;;;3.10;;
67757;SDS011;54562;47.620;18.786;2023-08-01T07:52:12;8.20;;;3.30;;
67757;SDS011;54562;47.620;18.786;2023-08-01T07:55:18;7.20;;;3.00;;
67757;SDS011;54562;47.620;18.786;2023-08-01T07:58:25;7.70;;;3.50;;
67757;SDS011;54562;47.620;18.786;2023-08-01T08:01:32;9.40;;;3.20;;
67757;SDS011;54562;47.620;18.786;2023-08-01T08:04:38;6.30;;;2.90;;
67757;SDS011;54562;47.620;18.786;2023-08-01T08:07:47;7.40;;;3.30;;
67757;SDS011;54562;47.620;18.786;2023-08-01T08:10:54;6.80;;;3.10;;
67757;SDS011;54562;47.620;18.786;2023-08-01T08:14:01;6.50;;;3.00;;
67757;SDS011;54562;47.620;18.786;2023-08-01T08:17:07;6.90;;;2.90;;
67757;SDS011;54562;47.620;18.786;2023-08-01T08:20:14;6.30;;;2.90;;
67757;SDS011;54562;47.620;18.786;2023-08-01T08:23:21;7.20;;;3.80;;
67757;SDS011;54562;47.620;18.786;2023-08-01T08:26:27;5.50;;;2.70;;
67757;SDS011;54562;47.620;18.786;2023-08-01T08:29:34;5.50;;;3.00;;
67757;SDS011;54562;47.620;18.786;2023-08-01T08:32:41;7.20;;;2.90;;
67757;SDS011;54562;47.620;18.786;2023-08-01T08:35:47;6.60;;;2.80;;
67757;SDS011;54562;47.620;18.786;2023-08-01T08:38:53;9.30;;;3.10;;
67757;SDS011;54562;47.620;18.786;2023-08-01T08:42:03;9.10;;;3.20;;
67757;SDS011;54562;47.620;18.786;2023-08-01T08:48:17;6.40;;;2.80;;
67757;SDS011;54562;47.620;18.786;2023-08-01T08:51:24;9.10;;;2.70;;
67757;SDS011;54562;47.620;18.786;2023-08-01T08:54:32;9.70;;;2.60;;
67757;SDS011;54562;47.620;18.786;2023-08-01T08:57:38;5.90;;;2.70;;
67757;SDS011;54562;47.620;18.786;2023-08-01T09:00:47;7.10;;;2.50;;
67757;SDS011;54562;47.620;18.786;2023-08-01T09:03:54;6.30;;;2.70;;
67757;SDS011;54562;47.620;18.786;2023-08-01T09:10:11;5.90;;;2.70;;
67757;SDS011;54562;47.620;18.786;2023-08-01T09:13:17;5.80;;;2.90;;
67757;SDS011;54562;47.620;18.786;2023-08-01T09:16:24;6.00;;;2.70;;
67757;SDS011;54562;47.620;18.786;2023-08-01T09:19:31;5.90;;;2.50;;
67757;SDS011;54562;47.620;18.786;2023-08-01T09:22:44;7.20;;;2.80;;
67757;SDS011;54562;47.620;18.786;2023-08-01T09:25:51;6.30;;;2.40;;
67757;SDS011;54562;47.620;18.786;2023-08-01T09:29:00;10.70;;;2.40;;
67757;SDS011;54562;47.620;18.786;2023-08-01T09:32:13;6.00;;;2.40;;
67757;SDS011;54562;47.620;18.786;2023-08-01T09:35:20;4.90;;;2.40;;
67757;SDS011;54562;47.620;18.786;2023-08-01T09:38:27;7.50;;;2.60;;
67757;SDS011;54562;47.620;18.786;2023-08-01T09:41:40;5.70;;;2.50;;
67757;SDS011;54562;47.620;18.786;2023-08-01T09:44:46;6.80;;;2.50;;
67757;SDS011;54562;47.620;18.786;2023-08-01T09:47:54;5.60;;;2.60;;
67757;SDS011;54562;47.620;18.786;2023-08-01T09:51:11;7.70;;;2.50;;
67757;SDS011;54562;47.620;18.786;2023-08-01T09:54:18;5.80;;;2.40;;
67757;SDS011;54562;47.620;18.786;2023-08-01T09:57:25;6.70;;;2.30;;
67757;SDS011;54562;47.620;18.786;2023-08-01T10:00:34;8.10;;;2.70;;
67757;SDS011;54562;47.620;18.786;2023-08-01T10:03:43;7.70;;;2.50;;
67757;SDS011;54562;47.620;18.786;2023-08-01T10:06:53;5.50;;;2.40;;
67757;SDS011;54562;47.620;18.786;2023-08-01T10:10:03;5.40;;;2.50;;
67757;SDS011;54562;47.620;18.786;2023-08-01T10:13:11;8.50;;;2.60;;
67757;SDS011;54562;47.620;18.786;2023-08-01T10:16:19;5.30;;;2.40;;
67757;SDS011;54562;47.620;18.786;2023-08-01T10:19:26;6.90;;;2.40;;
67757;SDS011;54562;47.620;18.786;2023-08-01T10:22:34;8.00;;;2.30;;
67757;SDS011;54562;47.620;18.786;2023-08-01T10:25:40;10.00;;;2.40;;
67757;SDS011;54562;47.620;18.786;2023-08-01T10:28:50;6.80;;;2.30;;
67757;SDS011;54562;47.620;18.786;2023-08-01T10:31:57;9.00;;;2.50;;
67757;SDS011;54562;47.620;18.786;2023-08-01T10:35:06;6.20;;;2.40;;
67757;SDS011;54562;47.620;18.786;2023-08-01T10:38:13;7.60;;;2.50;;
67757;SDS011;54562;47.620;18.786;2023-08-01T10:41:20;6.80;;;2.40;;
67757;SDS011;54562;47.620;18.786;2023-08-01T10:44:29;8.00;;;2.60;;
67757;SDS011;54562;47.620;18.786;2023-08-01T10:47:37;5.20;;;2.40;;
67757;SDS011;54562;47.620;18.786;2023-08-01T10:50:53;7.90;;;2.60;;
67757;SDS011;54562;47.620;18.786;2023-08-01T10:54:01;7.00;;;2.50;;
67757;SDS011;54562;47.620;18.786;2023-08-01T10:57:07;6.40;;;2.60;;
67757;SDS011;54562;47.620;18.786;2023-08-01T11:00:15;8.20;;;2.40;;
67757;SDS011;54562;47.620;18.786;2023-08-01T11:03:23;6.80;;;2.40;;
67757;SDS011;54562;47.620;18.786;2023-08-01T11:06:44;5.70;;;2.50;;
67757;SDS011;54562;47.620;18.786;2023-08-01T11:10:00;6.10;;;2.60;;
67757;SDS011;54562;47.620;18.786;2023-08-01T11:13:10;5.30;;;2.50;;
67757;SDS011;54562;47.620;18.786;2023-08-01T11:16:17;6.00;;;2.30;;
67757;SDS011;54562;47.620;18.786;2023-08-01T11:19:24;7.60;;;2.50;;
67757;SDS011;54562;47.620;18.786;2023-08-01T11:22:32;6.60;;;2.30;;
67757;SDS011;54562;47.620;18.786;2023-08-01T11:25:39;5.80;;;2.40;;
67757;SDS011;54562;47.620;18.786;2023-08-01T11:28:46;6.50;;;2.50;;
67757;SDS011;54562;47.620;18.786;2023-08-01T11:31:53;5.60;;;2.30;;
67757;SDS011;54562;47.620;18.786;2023-08-01T11:35:01;5.60;;;2.40;;
67757;SDS011;54562;47.620;18.786;2023-08-01T11:38:08;7.60;;;2.50;;
67757;SDS011;54562;47.620;18.786;2023-08-01T11:41:15;8.20;;;2.80;;
67757;SDS011;54562;47.620;18.786;2023-08-01T11:44:24;6.10;;;2.50;;
67757;SDS011;54562;47.620;18.786;2023-08-01T11:47:30;7.40;;;2.70;;
67757;SDS011;54562;47.620;18.786;2023-08-01T11:50:37;6.20;;;2.40;;
67757;SDS011;54562;47.620;18.786;2023-08-01T11:53:44;5.10;;;2.50;;
67757;SDS011;54562;47.620;18.786;2023-08-01T11:56:59;6.50;;;2.50;;
67757;SDS011;54562;47.620;18.786;2023-08-01T12:00:08;5.00;;;2.30;;
67757;SDS011;54562;47.620;18.786;2023-08-01T12:03:17;5.20;;;2.30;;
67757;SDS011;54562;47.620;18.786;2023-08-01T12:06:23;7.70;;;2.80;;
67757;SDS011;54562;47.620;18.786;2023-08-01T12:09:32;6.50;;;2.20;;
67757;SDS011;54562;47.620;18.786;2023-08-01T12:12:43;5.60;;;2.20;;
67757;SDS011;54562;47.620;18.786;2023-08-01T12:15:52;4.50;;;2.00;;
67757;SDS011;54562;47.620;18.786;2023-08-01T12:19:00;4.90;;;2.30;;
67757;SDS011;54562;47.620;18.786;2023-08-01T12:22:07;8.10;;;2.40;;
67757;SDS011;54562;47.620;18.786;2023-08-01T12:25:13;8.50;;;2.40;;
67757;SDS011;54562;47.620;18.786;2023-08-01T12:28:20;5.60;;;2.40;;
67757;SDS011;54562;47.620;18.786;2023-08-01T12:31:26;4.80;;;2.30;;
67757;SDS011;54562;47.620;18.786;2023-08-01T12:34:33;4.80;;;2.20;;
67757;SDS011;54562;47.620;18.786;2023-08-01T12:37:40;6.00;;;2.50;;
67757;SDS011;54562;47.620;18.786;2023-08-01T12:40:46;5.10;;;2.30;;
67757;SDS011;54562;47.620;18.786;2023-08-01T12:43:54;5.90;;;2.50;;
67757;SDS011;54562;47.620;18.786;2023-08-01T12:47:00;6.30;;;2.40;;
67757;SDS011;54562;47.620;18.786;2023-08-01T12:50:08;6.70;;;2.40;;
67757;SDS011;54562;47.620;18.786;2023-08-01T12:53:15;7.00;;;2.40;;
67757;SDS011;54562;47.620;18.786;2023-08-01T12:56:22;7.10;;;2.40;;
67757;SDS011;54562;47.620;18.786;2023-08-01T12:59:28;6.50;;;2.30;;
67757;SDS011;54562;47.620;18.786;2023-08-01T13:02:35;7.80;;;2.50;;
67757;SDS011;54562;47.620;18.786;2023-08-01T13:05:42;7.40;;;2.60;;
67757;SDS011;54562;47.620;18.786;2023-08-01T13:08:49;5.50;;;2.30;;
67757;SDS011;54562;47.620;18.786;2023-08-01T13:11:55;6.10;;;2.40;;
67757;SDS011;54562;47.620;18.786;2023-08-01T13:15:04;7.40;;;2.40;;
67757;SDS011;54562;47.620;18.786;2023-08-01T13:18:19;6.60;;;2.30;;
67757;SDS011;54562;47.620;18.786;2023-08-01T13:21:25;6.70;;;2.30;;
67757;SDS011;54562;47.620;18.786;2023-08-01T13:24:32;8.60;;;2.20;;
67757;SDS011;54562;47.620;18.786;2023-08-01T13:27:38;4.90;;;2.30;;
67757;SDS011;54562;47.620;18.786;2023-08-01T13:30:45;6.80;;;2.40;;
67757;SDS011;54562;47.620;18.786;2023-08-01T13:33:51;6.80;;;2.20;;
67757;SDS011;54562;47.620;18.786;2023-08-01T13:36:58;6.80;;;2.50;;
67757;SDS011;54562;47.620;18.786;2023-08-01T13:40:05;6.00;;;2.10;;
67757;SDS011;54562;47.620;18.786;2023-08-01T13:43:14;7.60;;;2.60;;
67757;SDS011;54562;47.620;18.786;2023-08-01T13:46:21;7.10;;;2.50;;
67757;SDS011;54562;47.620;18.786;2023-08-01T13:49:32;6.60;;;2.40;;
67757;SDS011;54562;47.620;18.786;2023-08-01T13:52:38;5.70;;;2.50;;
67757;SDS011;54562;47.620;18.786;2023-08-01T13:55:46;4.50;;;2.10;;
67757;SDS011;54562;47.620;18.786;2023-08-01T13:58:52;6.30;;;2.70;;
67757;SDS011;54562;47.620;18.786;2023-08-01T14:01:59;6.10;;;2.20;;
67757;SDS011;54562;47.620;18.786;2023-08-01T14:05:07;5.80;;;2.20;;
67757;SDS011;54562;47.620;18.786;2023-08-01T14:08:14;5.90;;;2.30;;
67757;SDS011;54562;47.620;18.786;2023-08-01T14:11:20;6.70;;;2.40;;
67757;SDS011;54562;47.620;18.786;2023-08-01T14:14:28;6.00;;;2.40;;
67757;SDS011;54562;47.620;18.786;2023-08-01T14:17:34;8.50;;;2.30;;
67757;SDS011;54562;47.620;18.786;2023-08-01T14:20:41;6.30;;;2.50;;
67757;SDS011;54562;47.620;18.786;2023-08-01T14:23:47;5.20;;;2.20;;
67757;SDS011;54562;47.620;18.786;2023-08-01T14:26:53;5.10;;;2.30;;
67757;SDS011;54562;47.620;18.786;2023-08-01T14:30:00;7.00;;;2.40;;
67757;SDS011;54562;47.620;18.786;2023-08-01T14:33:09;9.60;;;2.60;;
67757;SDS011;54562;47.620;18.786;2023-08-01T14:36:17;5.40;;;2.80;;
67757;SDS011;54562;47.620;18.786;2023-08-01T14:39:23;6.10;;;2.90;;
67757;SDS011;54562;47.620;18.786;2023-08-01T14:42:29;7.60;;;3.20;;
67757;SDS011;54562;47.620;18.786;2023-08-01T14:45:38;6.10;;;3.00;;
67757;SDS011;54562;47.620;18.786;2023-08-01T14:48:46;8.00;;;3.40;;
67757;SDS011;54562;47.620;18.786;2023-08-01T14:51:54;6.60;;;2.80;;
67757;SDS011;54562;47.620;18.786;2023-08-01T14:55:00;10.60;;;3.10;;
67757;SDS011;54562;47.620;18.786;2023-08-01T14:58:07;10.00;;;3.40;;
67757;SDS011;54562;47.620;18.786;2023-08-01T15:01:14;8.10;;;3.20;;
67757;SDS011;54562;47.620;18.786;2023-08-01T15:04:22;5.90;;;2.80;;
67757;SDS011;54562;47.620;18.786;2023-08-01T15:07:30;5.90;;;2.70;;
67757;SDS011;54562;47.620;18.786;2023-08-01T15:13:45;7.40;;;2.60;;
67757;SDS011;54562;47.620;18.786;2023-08-01T15:16:53;6.70;;;2.80;;
67757;SDS011;54562;47.620;18.786;2023-08-01T15:20:00;7.00;;;2.80;;
67757;SDS011;54562;47.620;18.786;2023-08-01T15:23:07;6.40;;;3.00;;
67757;SDS011;54562;47.620;18.786;2023-08-01T15:26:14;6.00;;;3.20;;
67757;SDS011;54562;47.620;18.786;2023-08-01T15:29:20;5.90;;;2.80;;
67757;SDS011;54562;47.620;18.786;2023-08-01T15:32:27;7.30;;;2.80;;
67757;SDS011;54562;47.620;18.786;2023-08-01T15:35:33;7.90;;;3.30;;
67757;SDS011;54562;47.620;18.786;2023-08-01T15:38:40;7.40;;;3.00;;
67757;SDS011;54562;47.620;18.786;2023-08-01T15:41:47;7.90;;;3.20;;
67757;SDS011;54562;47.620;18.786;2023-08-01T15:44:53;6.40;;;2.90;;
67757;SDS011;54562;47.620;18.786;2023-08-01T15:48:00;6.50;;;2.70;;
67757;SDS011;54562;47.620;18.786;2023-08-01T15:51:07;7.80;;;3.10;;
67757;SDS011;54562;47.620;18.786;2023-08-01T15:54:14;6.50;;;2.80;;
67757;SDS011;54562;47.620;18.786;2023-08-01T15:57:20;6.10;;;2.60;;
67757;SDS011;54562;47.620;18.786;2023-08-01T16:00:27;5.50;;;2.80;;
67757;SDS011;54562;47.620;18.786;2023-08-01T16:03:37;6.50;;;2.70;;
67757;SDS011;54562;47.620;18.786;2023-08-01T16:06:45;6.40;;;2.80;;
67757;SDS011;54562;47.620;18.786;2023-08-01T16:09:55;6.50;;;2.80;;
67757;SDS011;54562;47.620;18.786;2023-08-01T16:13:01;6.60;;;3.00;;
67757;SDS011;54562;47.620;18.786;2023-08-01T16:16:08;6.90;;;3.10;;
67757;SDS011;54562;47.620;18.786;2023-08-01T16:19:15;6.90;;;3.40;;
67757;SDS011;54562;47.620;18.786;2023-08-01T16:22:22;6.30;;;3.10;;
67757;SDS011;54562;47.620;18.786;2023-08-01T16:25:29;7.50;;;3.00;;
67757;SDS011;54562;47.620;18.786;2023-08-01T16:28:36;6.80;;;2.70;;
67757;SDS011;54562;47.620;18.786;2023-08-01T16:31:45;5.70;;;2.80;;
67757;SDS011;54562;47.620;18.786;2023-08-01T16:35:06;7.40;;;2.80;;
67757;SDS011;54562;47.620;18.786;2023-08-01T16:41:47;6.10;;;2.70;;
67757;SDS011;54562;47.620;18.786;2023-08-01T16:44:53;6.90;;;2.30;;
67757;SDS011;54562;47.620;18.786;2023-08-01T16:48:00;7.00;;;2.50;;
67757;SDS011;54562;47.620;18.786;2023-08-01T16:51:07;5.30;;;2.50;;
67757;SDS011;54562;47.620;18.786;2023-08-01T16:54:14;5.10;;;2.40;;
67757;SDS011;54562;47.620;18.786;2023-08-01T16:57:20;6.20;;;2.50;;
67757;SDS011;54562;47.620;18.786;2023-08-01T17:00:27;6.20;;;2.50;;
67757;SDS011;54562;47.620;18.786;2023-08-01T17:03:34;6.60;;;2.70;;
67757;SDS011;54562;47.620;18.786;2023-08-01T17:06:43;7.60;;;2.40;;
67757;SDS011;54562;47.620;18.786;2023-08-01T17:09:50;7.30;;;2.80;;
67757;SDS011;54562;47.620;18.786;2023-08-01T17:12:57;5.90;;;2.70;;
67757;SDS011;54562;47.620;18.786;2023-08-01T17:16:05;6.20;;;2.60;;
67757;SDS011;54562;47.620;18.786;2023-08-01T17:19:12;6.20;;;2.60;;
67757;SDS011;54562;47.620;18.786;2023-08-01T17:22:19;6.40;;;2.70;;
67757;SDS011;54562;47.620;18.786;2023-08-01T17:25:26;6.20;;;2.80;;
67757;SDS011;54562;47.620;18.786;2023-08-01T17:28:33;5.50;;;2.80;;
67757;SDS011;54562;47.620;18.786;2023-08-01T17:31:40;4.90;;;2.50;;
67757;SDS011;54562;47.620;18.786;2023-08-01T17:34:46;6.20;;;2.90;;
67757;SDS011;54562;47.620;18.786;2023-08-01T17:37:52;5.80;;;2.90;;
67757;SDS011;54562;47.620;18.786;2023-08-01T17:41:05;7.50;;;2.70;;
67757;SDS011;54562;47.620;18.786;2023-08-01T17:44:23;6.20;;;3.10;;
67757;SDS011;54562;47.620;18.786;2023-08-01T17:47:35;6.10;;;2.90;;
67757;SDS011;54562;47.620;18.786;2023-08-01T17:50:42;5.80;;;2.70;;
67757;SDS011;54562;47.620;18.786;2023-08-01T17:53:49;5.40;;;2.40;;
67757;SDS011;54562;47.620;18.786;2023-08-01T17:56:55;6.40;;;2.90;;
67757;SDS011;54562;47.620;18.786;2023-08-01T18:00:02;7.00;;;2.90;;
67757;SDS011;54562;47.620;18.786;2023-08-01T18:03:11;6.60;;;2.60;;
67757;SDS011;54562;47.620;18.786;2023-08-01T18:06:18;6.40;;;2.80;;
67757;SDS011;54562;47.620;18.786;2023-08-01T18:09:25;6.00;;;2.50;;
67757;SDS011;54562;47.620;18.786;2023-08-01T18:12:31;6.30;;;2.60;;
67757;SDS011;54562;47.620;18.786;2023-08-01T18:15:38;6.70;;;2.70;;
67757;SDS011;54562;47.620;18.786;2023-08-01T18:18:49;6.30;;;2.90;;
67757;SDS011;54562;47.620;18.786;2023-08-01T18:21:58;5.90;;;2.70;;
67757;SDS011;54562;47.620;18.786;2023-08-01T18:25:05;7.50;;;2.90;;
67757;SDS011;54562;47.620;18.786;2023-08-01T18:28:12;7.60;;;2.90;;
67757;SDS011;54562;47.620;18.786;2023-08-01T18:31:19;6.60;;;2.70;;
67757;SDS011;54562;47.620;18.786;2023-08-01T18:34:25;8.70;;;2.90;;
67757;SDS011;54562;47.620;18.786;2023-08-01T18:37:32;6.70;;;3.40;;
67757;SDS011;54562;47.620;18.786;2023-08-01T18:40:39;6.40;;;3.30;;
67757;SDS011;54562;47.620;18.786;2023-08-01T18:43:48;6.60;;;2.90;;
67757;SDS011;54562;47.620;18.786;2023-08-01T18:46:56;6.70;;;3.00;;